createdAt,value
2019-06-25T00:00:33.387Z,96.90
2019-06-25T00:01:37.556Z,96.80
2019-06-25T00:02:41.162Z,97.10
2019-06-25T00:03:45.278Z,97.10
2019-06-25T00:04:48.850Z,97.40
2019-06-25T00:05:53.003Z,97.10
2019-06-25T00:06:56.611Z,97.00
2019-06-25T00:08:00.774Z,97.60
2019-06-25T00:09:05.585Z,98.10
2019-06-25T00:10:09.909Z,98.10
2019-06-25T00:11:13.476Z,98.10
2019-06-25T00:12:17.637Z,98.30
2019-06-25T00:13:21.203Z,98.10
2019-06-25T00:14:25.349Z,98.10
2019-06-25T00:15:28.946Z,97.50
2019-06-25T00:16:33.100Z,97.90
2019-06-25T00:17:36.667Z,98.30
2019-06-25T00:18:40.839Z,98.30
2019-06-25T00:19:44.386Z,98.40
2019-06-25T00:20:48.571Z,98.20
2019-06-25T00:21:52.136Z,98.20
2019-06-25T00:22:56.287Z,98.70
2019-06-25T00:23:59.851Z,98.50
2019-06-25T00:25:05.046Z,98.50
2019-06-25T00:26:08.611Z,98.10
2019-06-25T00:27:12.765Z,98.30
2019-06-25T00:28:16.326Z,98.50
2019-06-25T00:29:20.519Z,98.60
2019-06-25T00:30:24.103Z,98.80
2019-06-25T00:31:28.254Z,98.90
2019-06-25T00:32:31.863Z,98.90
2019-06-25T00:33:36.046Z,99.00
2019-06-25T00:34:39.625Z,99.40
2019-06-25T00:35:43.776Z,99.50
2019-06-25T00:36:47.350Z,99.80
2019-06-25T00:37:51.535Z,99.90
2019-06-25T00:38:55.138Z,99.90
2019-06-25T00:39:59.376Z,99.90
2019-06-25T00:41:02.911Z,99.90
2019-06-25T00:42:07.060Z,99.90
2019-06-25T00:43:10.644Z,99.90
2019-06-25T00:44:14.805Z,99.90
2019-06-25T00:45:18.420Z,99.90
2019-06-25T00:46:22.566Z,99.90
2019-06-25T00:47:26.143Z,99.90
2019-06-25T00:48:30.291Z,99.90
2019-06-25T00:49:33.908Z,99.90
2019-06-25T00:50:38.068Z,99.90
2019-06-25T00:51:41.721Z,99.90
2019-06-25T00:52:45.904Z,99.90
2019-06-25T00:53:49.475Z,99.90
2019-06-25T00:54:53.627Z,99.90
2019-06-25T00:57:00.872Z,99.90
2019-06-25T00:58:04.712Z,99.90
2019-06-25T00:59:08.667Z,99.90
2019-06-25T01:00:14.013Z,99.90
2019-06-25T01:01:18.063Z,99.90
2019-06-25T01:02:25.935Z,99.90
2019-06-25T01:03:31.150Z,99.90
2019-06-25T01:04:35.311Z,99.90
2019-06-25T01:05:38.983Z,99.90
2019-06-25T01:06:43.130Z,99.90
2019-06-25T01:07:46.702Z,99.90
2019-06-25T01:08:50.859Z,99.90
2019-06-25T01:09:54.435Z,99.90
2019-06-25T01:10:58.779Z,99.90
2019-06-25T01:12:02.441Z,99.90
2019-06-25T01:13:06.518Z,99.90
2019-06-25T01:14:10.088Z,99.90
2019-06-25T01:15:14.674Z,99.90
2019-06-25T01:16:18.315Z,99.90
2019-06-25T01:17:22.479Z,99.90
2019-06-25T01:18:26.057Z,99.90
2019-06-25T01:19:30.223Z,99.90
2019-06-25T01:20:33.795Z,99.90
2019-06-25T01:21:37.953Z,99.90
2019-06-25T01:22:41.560Z,99.90
2019-06-25T01:23:45.715Z,99.90
2019-06-25T01:24:49.304Z,99.90
2019-06-25T01:25:53.987Z,99.90
2019-06-25T01:26:57.566Z,99.90
2019-06-25T01:28:01.763Z,99.90
2019-06-25T01:29:05.368Z,99.90
2019-06-25T01:30:10.171Z,99.90
2019-06-25T01:31:13.760Z,99.90
2019-06-25T01:32:17.956Z,99.90
2019-06-25T01:33:21.586Z,99.90
2019-06-25T01:34:25.742Z,99.90
2019-06-25T01:35:29.314Z,99.90
2019-06-25T01:36:33.463Z,99.90
2019-06-25T01:37:37.044Z,99.90
2019-06-25T01:38:41.233Z,99.90
2019-06-25T01:39:44.802Z,99.90
2019-06-25T01:40:48.962Z,99.90
2019-06-25T01:41:52.621Z,99.90
2019-06-25T01:42:56.803Z,99.90
2019-06-25T01:44:00.383Z,99.90
2019-06-25T01:45:05.871Z,99.90
2019-06-25T01:46:09.452Z,99.90
2019-06-25T01:47:13.638Z,99.90
2019-06-25T01:48:17.307Z,99.90
2019-06-25T01:49:21.479Z,99.90
2019-06-25T01:50:25.096Z,99.90
2019-06-25T01:51:29.239Z,99.90
2019-06-25T01:52:32.823Z,99.90
2019-06-25T01:53:36.983Z,99.90
2019-06-25T01:54:40.588Z,99.90
2019-06-25T01:55:44.775Z,99.90
2019-06-25T01:56:48.362Z,99.90
2019-06-25T01:57:52.550Z,99.90
2019-06-25T01:58:56.210Z,99.90
2019-06-25T02:00:00.352Z,99.90
2019-06-25T02:01:03.994Z,99.90
2019-06-25T02:02:08.220Z,99.90
2019-06-25T02:03:11.805Z,99.90
2019-06-25T02:04:15.983Z,99.90
2019-06-25T02:05:19.554Z,99.90
2019-06-25T02:06:23.730Z,99.90
2019-06-25T02:07:27.284Z,99.90
2019-06-25T02:08:31.438Z,99.90
2019-06-25T02:09:35.171Z,99.90
2019-06-25T02:10:39.283Z,99.90
2019-06-25T02:11:42.847Z,99.90
2019-06-25T02:12:47.058Z,99.90
2019-06-25T02:13:50.642Z,99.90
2019-06-25T02:14:54.808Z,99.90
2019-06-25T02:15:58.388Z,99.90
2019-06-25T02:17:02.555Z,99.90
2019-06-25T02:18:06.241Z,99.90
2019-06-25T02:19:10.351Z,99.90
2019-06-25T02:20:15.660Z,99.90
2019-06-25T02:21:19.817Z,99.90
2019-06-25T02:22:23.392Z,99.90
2019-06-25T02:23:27.541Z,99.90
2019-06-25T02:24:31.137Z,99.90
2019-06-25T02:25:35.284Z,99.90
2019-06-25T02:26:38.851Z,99.90
2019-06-25T02:27:43.009Z,99.90
2019-06-25T02:28:46.618Z,99.90
2019-06-25T02:29:50.781Z,99.90
2019-06-25T02:31:06.350Z,99.90
2019-06-25T02:32:00.172Z,99.90
2019-06-25T02:33:03.865Z,99.90
2019-06-25T02:34:07.973Z,99.90
2019-06-25T02:35:12.192Z,99.90
2019-06-25T02:36:16.382Z,99.90
2019-06-25T02:37:19.956Z,99.90
2019-06-25T02:38:24.103Z,99.90
2019-06-25T02:39:27.705Z,99.90
2019-06-25T02:40:31.869Z,99.90
2019-06-25T02:41:35.499Z,99.90
2019-06-25T02:42:39.731Z,99.90
2019-06-25T02:43:43.366Z,99.90
2019-06-25T02:44:47.628Z,99.90
2019-06-25T02:45:51.265Z,99.90
2019-06-25T02:46:55.440Z,99.90
2019-06-25T02:47:59.002Z,99.90
2019-06-25T02:49:03.152Z,99.90
2019-06-25T02:50:08.819Z,99.90
2019-06-25T02:51:12.931Z,99.90
2019-06-25T02:52:16.516Z,99.90
2019-06-25T02:53:20.658Z,99.90
2019-06-25T02:54:24.300Z,99.90
2019-06-25T02:55:28.491Z,99.90
2019-06-25T02:56:32.064Z,99.90
2019-06-25T02:57:36.256Z,99.90
2019-06-25T02:58:39.903Z,99.90
2019-06-25T02:59:44.052Z,99.90
2019-06-25T03:00:47.668Z,99.90
2019-06-25T03:01:51.840Z,99.90
2019-06-25T03:02:55.406Z,99.90
2019-06-25T03:03:59.631Z,99.90
2019-06-25T03:05:04.314Z,99.90
2019-06-25T03:06:08.462Z,99.90
2019-06-25T03:07:12.041Z,99.90
2019-06-25T03:08:16.192Z,99.90
2019-06-25T03:09:19.764Z,99.90
2019-06-25T03:10:23.968Z,99.90
2019-06-25T03:11:27.540Z,99.90
2019-06-25T03:12:31.699Z,99.90
2019-06-25T03:13:36.475Z,99.90
2019-06-25T03:14:40.648Z,99.90
2019-06-25T03:15:44.223Z,99.90
2019-06-25T03:16:48.409Z,99.90
2019-06-25T03:17:51.978Z,99.90
2019-06-25T03:18:56.124Z,99.90
2019-06-25T03:19:59.698Z,99.90
2019-06-25T03:21:03.860Z,99.90
2019-06-25T03:22:07.472Z,99.90
2019-06-25T03:23:11.644Z,99.90
2019-06-25T03:24:15.229Z,99.90
2019-06-25T03:25:19.487Z,99.90
2019-06-25T03:26:23.156Z,99.90
2019-06-25T03:27:27.309Z,99.90
2019-06-25T03:28:30.877Z,99.90
2019-06-25T03:29:35.030Z,99.90
2019-06-25T03:30:38.592Z,99.90
2019-06-25T03:32:04.707Z,99.90
2019-06-25T03:32:48.012Z,99.90
2019-06-25T03:33:52.175Z,99.90
2019-06-25T03:34:55.727Z,99.90
2019-06-25T03:35:59.922Z,99.90
2019-06-25T03:37:03.499Z,99.90
2019-06-25T03:38:07.652Z,99.90
2019-06-25T03:39:11.225Z,99.90
2019-06-25T03:40:15.515Z,99.90
2019-06-25T03:41:19.111Z,99.90
2019-06-25T03:42:23.272Z,99.90
2019-06-25T03:43:26.845Z,99.90
2019-06-25T03:44:31.010Z,99.90
2019-06-25T03:45:34.584Z,99.90
2019-06-25T03:46:38.779Z,99.90
2019-06-25T03:47:42.427Z,99.90
2019-06-25T03:48:46.628Z,99.90
2019-06-25T03:49:50.207Z,99.90
2019-06-25T03:50:54.435Z,99.90
2019-06-25T03:51:58.011Z,99.90
2019-06-25T03:53:02.212Z,99.90
2019-06-25T03:54:05.863Z,99.90
2019-06-25T03:55:10.090Z,99.90
2019-06-25T03:56:13.671Z,99.90
2019-06-25T03:57:17.942Z,99.90
2019-06-25T03:58:21.519Z,99.90
2019-06-25T03:59:25.674Z,99.90
2019-06-25T04:00:29.282Z,99.90
2019-06-25T04:01:33.444Z,99.90
2019-06-25T04:02:37.004Z,99.90
2019-06-25T04:03:41.154Z,99.90
2019-06-25T04:04:44.736Z,99.90
2019-06-25T04:05:48.920Z,99.90
2019-06-25T04:06:52.490Z,99.90
2019-06-25T04:07:56.653Z,99.90
2019-06-25T04:09:00.218Z,99.90
2019-06-25T04:10:07.246Z,99.90
2019-06-25T04:11:10.838Z,99.90
2019-06-25T04:12:14.992Z,99.90
2019-06-25T04:13:18.563Z,99.90
2019-06-25T04:14:22.746Z,99.90
2019-06-25T04:15:26.328Z,99.90
2019-06-25T04:16:30.527Z,99.90
2019-06-25T04:17:34.101Z,99.90
2019-06-25T04:18:38.254Z,99.90
2019-06-25T04:19:41.899Z,99.90
2019-06-25T04:20:46.065Z,99.90
2019-06-25T04:21:49.701Z,99.90
2019-06-25T04:22:53.854Z,99.90
2019-06-25T04:23:57.440Z,99.90
2019-06-25T04:25:01.633Z,99.90
2019-06-25T04:26:05.298Z,99.90
2019-06-25T04:27:09.455Z,99.90
2019-06-25T04:28:13.099Z,99.90
2019-06-25T04:29:17.262Z,99.90
2019-06-25T04:30:21.019Z,99.90
2019-06-25T04:31:25.175Z,99.90
2019-06-25T04:32:33.416Z,99.90
2019-06-25T04:33:34.559Z,99.90
2019-06-25T04:34:38.170Z,99.90
2019-06-25T04:35:42.352Z,99.90
2019-06-25T04:36:45.936Z,99.90
2019-06-25T04:37:50.135Z,99.90
2019-06-25T04:38:53.724Z,99.90
2019-06-25T04:39:57.890Z,99.90
2019-06-25T04:41:01.504Z,99.90
2019-06-25T04:42:05.789Z,99.90
2019-06-25T04:43:09.413Z,99.90
2019-06-25T04:44:13.531Z,99.90
2019-06-25T04:45:17.381Z,99.90
2019-06-25T04:46:21.551Z,99.90
2019-06-25T04:47:25.115Z,99.90
2019-06-25T04:48:29.273Z,99.90
2019-06-25T04:49:32.886Z,99.90
2019-06-25T04:50:37.028Z,99.90
2019-06-25T04:51:40.613Z,99.90
2019-06-25T04:52:44.803Z,99.90
2019-06-25T04:53:48.382Z,99.90
2019-06-25T04:54:52.539Z,99.90
2019-06-25T04:55:56.154Z,99.90
2019-06-25T04:57:00.303Z,99.90
2019-06-25T04:58:03.880Z,99.90
2019-06-25T04:59:08.075Z,99.90
2019-06-25T05:00:12.802Z,99.90
2019-06-25T05:01:16.996Z,99.90
2019-06-25T05:02:20.624Z,99.90
2019-06-25T05:03:24.797Z,99.90
2019-06-25T05:04:28.377Z,99.90
2019-06-25T05:05:32.522Z,99.90
2019-06-25T05:06:36.099Z,99.90
2019-06-25T05:07:40.296Z,99.90
2019-06-25T05:08:43.894Z,99.90
2019-06-25T05:09:48.043Z,99.90
2019-06-25T05:10:51.662Z,99.90
2019-06-25T05:11:55.856Z,99.90
2019-06-25T05:12:59.427Z,99.90
2019-06-25T05:14:03.955Z,99.90
2019-06-25T05:15:10.338Z,99.90
2019-06-25T05:16:14.496Z,99.90
2019-06-25T05:17:18.652Z,99.90
2019-06-25T05:18:25.150Z,99.90
2019-06-25T05:19:28.723Z,99.90
2019-06-25T05:20:32.867Z,99.90
2019-06-25T05:21:36.431Z,99.90
2019-06-25T05:22:40.968Z,99.90
2019-06-25T05:23:44.903Z,99.90
2019-06-25T05:24:49.620Z,99.90
2019-06-25T05:25:53.330Z,99.90
2019-06-25T05:26:57.491Z,99.90
2019-06-25T05:28:01.174Z,99.90
2019-06-25T05:29:05.502Z,99.90
2019-06-25T05:30:11.883Z,99.90
2019-06-25T05:31:16.112Z,99.90
2019-06-25T05:32:19.687Z,99.90
2019-06-25T05:33:23.946Z,99.90
2019-06-25T05:34:27.521Z,99.90
2019-06-25T05:35:32.018Z,99.90
2019-06-25T05:36:46.001Z,99.90
2019-06-25T05:37:49.696Z,99.90
2019-06-25T05:38:53.843Z,99.90
2019-06-25T05:39:57.422Z,99.90
2019-06-25T05:41:01.647Z,99.90
2019-06-25T05:42:05.215Z,99.90
2019-06-25T05:43:09.406Z,99.90
2019-06-25T05:44:12.979Z,99.90
2019-06-25T05:45:20.239Z,99.90
2019-06-25T05:46:23.875Z,99.90
2019-06-25T05:47:28.032Z,99.90
2019-06-25T05:48:31.653Z,99.90
2019-06-25T05:49:35.956Z,99.90
2019-06-25T05:50:39.752Z,99.90
2019-06-25T05:51:43.956Z,99.90
2019-06-25T05:52:47.539Z,99.90
2019-06-25T05:53:51.686Z,99.90
2019-06-25T05:54:55.271Z,99.90
2019-06-25T05:55:59.523Z,99.90
2019-06-25T05:57:03.119Z,99.90
2019-06-25T05:58:07.262Z,99.90
2019-06-25T05:59:10.839Z,99.90
2019-06-25T06:00:16.842Z,99.90
2019-06-25T06:01:20.544Z,99.90
2019-06-25T06:02:24.708Z,99.90
2019-06-25T06:03:28.420Z,99.90
2019-06-25T06:04:32.612Z,99.90
2019-06-25T06:05:36.256Z,99.90
2019-06-25T06:06:40.399Z,99.90
2019-06-25T06:07:44.117Z,99.90
2019-06-25T06:08:50.568Z,99.90
2019-06-25T06:09:54.132Z,99.90
2019-06-25T06:10:58.654Z,99.90
2019-06-25T06:12:02.263Z,99.90
2019-06-25T06:13:06.543Z,99.90
2019-06-25T06:14:10.122Z,99.90
2019-06-25T06:15:15.106Z,99.90
2019-06-25T06:16:18.677Z,99.90
2019-06-25T06:17:22.864Z,99.90
2019-06-25T06:18:29.506Z,99.90
2019-06-25T06:19:33.690Z,99.90
2019-06-25T06:20:37.274Z,99.90
2019-06-25T06:21:41.483Z,99.90
2019-06-25T06:22:45.083Z,99.90
2019-06-25T06:23:49.309Z,99.90
2019-06-25T06:24:53.742Z,99.90
2019-06-25T06:25:58.024Z,99.90
2019-06-25T06:27:01.658Z,99.90
2019-06-25T06:28:05.824Z,99.90
2019-06-25T06:29:09.425Z,99.90
2019-06-25T06:30:14.221Z,99.90
2019-06-25T06:31:18.536Z,99.90
2019-06-25T06:32:22.916Z,99.90
2019-06-25T06:33:36.114Z,99.90
2019-06-25T06:34:32.461Z,99.90
2019-06-25T06:35:36.041Z,99.90
2019-06-25T06:36:40.231Z,99.90
2019-06-25T06:37:43.802Z,99.90
2019-06-25T06:38:48.001Z,99.90
2019-06-25T06:39:51.572Z,99.90
2019-06-25T06:40:55.721Z,99.90
2019-06-25T06:41:59.471Z,99.90
2019-06-25T06:43:03.706Z,99.90
2019-06-25T06:44:07.343Z,99.90
2019-06-25T06:45:13.188Z,99.90
2019-06-25T06:46:16.822Z,99.90
2019-06-25T06:47:20.984Z,99.90
2019-06-25T06:48:24.669Z,99.90
2019-06-25T06:49:28.961Z,99.90
2019-06-25T06:50:32.580Z,99.90
2019-06-25T06:51:36.815Z,99.90
2019-06-25T06:52:40.363Z,99.90
2019-06-25T06:53:44.521Z,99.90
2019-06-25T06:54:48.206Z,99.90
2019-06-25T06:55:52.512Z,99.90
2019-06-25T06:56:56.093Z,99.90
2019-06-25T06:58:00.246Z,99.90
2019-06-25T06:59:03.921Z,99.90
2019-06-25T07:00:09.376Z,99.90
2019-06-25T07:01:13.105Z,99.90
2019-06-25T07:02:17.328Z,99.90
2019-06-25T07:03:20.982Z,99.90
2019-06-25T07:04:25.245Z,99.90
2019-06-25T07:05:29.034Z,99.90
2019-06-25T07:06:33.272Z,99.90
2019-06-25T07:07:36.844Z,99.90
2019-06-25T07:08:41.159Z,99.90
2019-06-25T07:09:44.857Z,99.90
2019-06-25T07:10:49.011Z,99.90
2019-06-25T07:11:52.711Z,99.90
2019-06-25T07:12:56.953Z,99.90
2019-06-25T07:14:00.788Z,99.90
2019-06-25T07:15:07.210Z,99.90
2019-06-25T07:16:10.902Z,99.90
2019-06-25T07:17:15.058Z,99.90
2019-06-25T07:18:18.652Z,99.90
2019-06-25T07:19:22.828Z,99.90
2019-06-25T07:20:33.697Z,99.90
2019-06-25T07:21:32.228Z,99.90
2019-06-25T07:22:35.944Z,99.90
2019-06-25T07:23:40.103Z,99.90
2019-06-25T07:24:43.755Z,99.90
2019-06-25T07:25:47.954Z,99.90
2019-06-25T07:26:51.590Z,99.90
2019-06-25T07:27:55.773Z,99.90
2019-06-25T07:28:59.325Z,99.90
2019-06-25T07:30:03.825Z,99.90
2019-06-25T07:31:07.465Z,99.90
2019-06-25T07:32:11.660Z,99.90
2019-06-25T07:33:15.250Z,99.90
2019-06-25T07:34:19.464Z,99.90
2019-06-25T07:35:23.223Z,99.90
2019-06-25T07:36:27.446Z,99.90
2019-06-25T07:37:31.075Z,99.90
2019-06-25T07:38:35.215Z,99.90
2019-06-25T07:39:38.784Z,99.90
2019-06-25T07:40:43.003Z,99.90
2019-06-25T07:41:46.595Z,99.90
2019-06-25T07:42:50.781Z,99.90
2019-06-25T07:43:54.367Z,99.90
2019-06-25T07:44:58.586Z,99.90
2019-06-25T07:46:02.588Z,99.90
2019-06-25T07:47:06.771Z,99.90
2019-06-25T07:48:10.416Z,99.90
2019-06-25T07:49:14.627Z,99.90
2019-06-25T07:50:18.742Z,99.90
2019-06-25T07:51:23.027Z,99.90
2019-06-25T07:52:26.636Z,99.90
2019-06-25T07:53:31.092Z,99.90
2019-06-25T07:54:34.726Z,99.90
2019-06-25T07:55:38.920Z,99.90
2019-06-25T07:56:42.482Z,99.90
2019-06-25T07:57:46.719Z,99.90
2019-06-25T07:58:50.396Z,99.90
2019-06-25T07:59:55.126Z,99.90
2019-06-25T08:00:58.763Z,99.90
2019-06-25T08:02:02.952Z,99.90
2019-06-25T08:03:06.616Z,99.90
2019-06-25T08:04:24.404Z,99.90
2019-06-25T08:05:16.890Z,99.90
2019-06-25T08:06:21.044Z,99.90
2019-06-25T08:07:24.725Z,99.90
2019-06-25T08:08:28.956Z,99.90
2019-06-25T08:09:32.602Z,99.90
2019-06-25T08:10:36.771Z,99.90
2019-06-25T08:11:40.316Z,99.90
2019-06-25T08:12:44.499Z,99.90
2019-06-25T08:13:48.066Z,99.90
2019-06-25T08:14:52.221Z,99.90
2019-06-25T08:15:55.779Z,99.90
2019-06-25T08:16:59.960Z,99.90
2019-06-25T08:18:03.596Z,99.90
2019-06-25T08:19:07.709Z,99.90
2019-06-25T08:20:12.537Z,99.90
2019-06-25T08:21:16.670Z,99.90
2019-06-25T08:22:20.308Z,99.90
2019-06-25T08:23:24.451Z,99.90
2019-06-25T08:24:28.165Z,99.90
2019-06-25T08:25:32.339Z,99.90
2019-06-25T08:26:35.907Z,99.90
2019-06-25T08:27:40.095Z,99.90
2019-06-25T08:28:43.824Z,99.90
2019-06-25T08:29:47.979Z,99.90
2019-06-25T08:30:51.591Z,99.90
2019-06-25T08:31:55.740Z,99.90
2019-06-25T08:32:59.375Z,99.90
2019-06-25T08:34:03.593Z,99.90
2019-06-25T08:35:08.308Z,99.90
2019-06-25T08:36:12.496Z,99.90
2019-06-25T08:37:16.068Z,99.90
2019-06-25T08:38:20.284Z,99.90
2019-06-25T08:39:23.943Z,99.90
2019-06-25T08:40:28.128Z,99.90
2019-06-25T08:41:31.935Z,99.90
2019-06-25T08:42:36.091Z,99.90
2019-06-25T08:43:39.661Z,99.90
2019-06-25T08:44:43.818Z,99.90
2019-06-25T08:45:47.379Z,99.90
2019-06-25T08:46:51.559Z,99.90
2019-06-25T08:47:55.128Z,99.90
2019-06-25T08:48:59.576Z,99.90
2019-06-25T08:50:03.580Z,99.90
2019-06-25T08:51:07.733Z,99.90
2019-06-25T08:52:11.421Z,99.90
2019-06-25T08:53:15.638Z,99.90
2019-06-25T08:54:19.214Z,99.90
2019-06-25T08:55:23.395Z,99.90
2019-06-25T08:56:26.958Z,99.90
2019-06-25T08:57:31.225Z,99.90
2019-06-25T08:58:34.791Z,99.90
2019-06-25T08:59:39.008Z,99.90
2019-06-25T09:00:42.584Z,99.90
2019-06-25T09:01:46.732Z,99.90
2019-06-25T09:02:50.428Z,99.90
2019-06-25T09:03:54.608Z,99.90
2019-06-25T09:05:02.857Z,99.90
2019-06-25T09:06:03.972Z,99.90
2019-06-25T09:07:07.542Z,99.90
2019-06-25T09:08:11.802Z,99.90
2019-06-25T09:09:15.346Z,99.90
2019-06-25T09:10:19.823Z,99.90
2019-06-25T09:11:23.400Z,99.90
2019-06-25T09:12:27.603Z,99.90
2019-06-25T09:13:31.243Z,99.90
2019-06-25T09:14:35.461Z,99.90
2019-06-25T09:15:39.044Z,99.90
2019-06-25T09:16:43.200Z,99.90
2019-06-25T09:17:46.829Z,99.90
2019-06-25T09:18:51.003Z,99.90
2019-06-25T09:19:54.617Z,99.90
2019-06-25T09:20:58.880Z,99.90
2019-06-25T09:22:02.545Z,99.90
2019-06-25T09:23:06.769Z,99.90
2019-06-25T09:24:10.328Z,99.90
2019-06-25T09:25:17.466Z,99.90
2019-06-25T09:26:19.872Z,99.90
2019-06-25T09:27:24.087Z,99.90
2019-06-25T09:28:27.652Z,99.90
2019-06-25T09:29:31.876Z,99.90
2019-06-25T09:30:37.249Z,99.90
2019-06-25T09:31:41.393Z,99.90
2019-06-25T09:32:45.046Z,99.90
2019-06-25T09:33:49.193Z,99.90
2019-06-25T09:34:52.893Z,99.90
2019-06-25T09:35:57.124Z,99.90
2019-06-25T09:37:00.745Z,99.90
2019-06-25T09:38:05.045Z,99.90
2019-06-25T09:39:08.747Z,99.90
2019-06-25T09:40:11.944Z,99.90
2019-06-25T09:41:14.451Z,99.90
2019-06-25T09:42:17.579Z,99.90
2019-06-25T09:43:20.068Z,99.90
2019-06-25T09:44:23.145Z,99.90
2019-06-25T09:45:34.901Z,99.90
2019-06-25T09:46:40.191Z,99.90
2019-06-25T09:47:45.135Z,99.90
2019-06-25T09:48:50.063Z,99.90
2019-06-25T09:49:54.163Z,99.90
2019-06-25T09:50:58.466Z,99.90
2019-06-25T09:52:05.434Z,99.90
2019-06-25T09:53:09.900Z,99.90
2019-06-25T09:54:13.463Z,99.90
2019-06-25T09:55:17.696Z,99.90
2019-06-25T09:56:21.332Z,99.90
2019-06-25T09:57:25.496Z,99.90
2019-06-25T09:58:29.642Z,99.90
2019-06-25T09:59:34.000Z,99.90
2019-06-25T10:00:52.036Z,99.90
2019-06-25T10:01:56.217Z,99.90
2019-06-25T10:02:59.893Z,99.90
2019-06-25T10:04:04.069Z,99.90
2019-06-25T10:05:07.745Z,99.90
2019-06-25T10:06:11.898Z,99.90
2019-06-25T10:07:15.861Z,99.90
2019-06-25T10:08:20.119Z,99.90
2019-06-25T10:09:23.729Z,99.90
2019-06-25T10:10:27.885Z,99.90
2019-06-25T10:11:31.493Z,99.90
2019-06-25T10:12:35.724Z,99.90
2019-06-25T10:13:39.288Z,99.90
2019-06-25T10:14:43.443Z,99.90
2019-06-25T10:15:47.480Z,99.90
2019-06-25T10:16:51.702Z,99.90
2019-06-25T10:17:55.265Z,99.90
2019-06-25T10:18:59.417Z,99.90
2019-06-25T10:20:04.397Z,99.90
2019-06-25T10:21:08.564Z,99.90
2019-06-25T10:22:12.128Z,99.90
2019-06-25T10:23:16.271Z,99.90
2019-06-25T10:24:19.883Z,99.90
2019-06-25T10:25:24.073Z,99.90
2019-06-25T10:26:27.644Z,99.90
2019-06-25T10:27:31.822Z,99.90
2019-06-25T10:28:39.272Z,99.90
2019-06-25T10:29:42.649Z,99.90
2019-06-25T10:30:51.702Z,99.90
2019-06-25T10:31:55.872Z,99.90
2019-06-25T10:32:59.529Z,99.90
2019-06-25T10:34:03.687Z,99.90
2019-06-25T10:35:07.916Z,99.90
2019-06-25T10:36:12.060Z,99.90
2019-06-25T10:37:15.663Z,99.90
2019-06-25T10:38:21.168Z,99.90
2019-06-25T10:39:24.737Z,99.90
2019-06-25T10:40:28.888Z,99.90
2019-06-25T10:41:32.468Z,99.90
2019-06-25T10:42:36.649Z,99.90
2019-06-25T10:43:40.219Z,99.90
2019-06-25T10:44:44.356Z,99.90
2019-06-25T10:45:47.951Z,99.90
2019-06-25T10:46:52.101Z,99.90
2019-06-25T10:47:55.669Z,99.80
2019-06-25T10:48:59.871Z,99.90
2019-06-25T10:50:03.708Z,99.80
2019-06-25T10:51:07.992Z,99.80
2019-06-25T10:52:11.655Z,99.10
2019-06-25T10:53:15.815Z,99.50
2019-06-25T10:54:19.371Z,99.10
2019-06-25T10:55:23.522Z,98.70
2019-06-25T10:56:30.897Z,99.10
2019-06-25T10:57:32.906Z,98.50
2019-06-25T10:58:36.499Z,98.10
2019-06-25T10:59:40.656Z,98.30
2019-06-25T11:00:55.841Z,98.40
2019-06-25T11:02:00.099Z,99.30
2019-06-25T11:03:04.020Z,98.80
2019-06-25T11:04:08.284Z,98.80
2019-06-25T11:05:12.101Z,98.90
2019-06-25T11:06:16.240Z,99.00
2019-06-25T11:07:19.826Z,98.30
2019-06-25T11:08:23.954Z,98.80
2019-06-25T11:09:27.556Z,98.00
2019-06-25T11:10:31.722Z,96.60
2019-06-25T11:11:35.643Z,95.90
2019-06-25T11:12:39.858Z,95.80
2019-06-25T11:13:43.494Z,96.50
2019-06-25T11:14:47.938Z,95.50
2019-06-25T11:15:51.855Z,95.90
2019-06-25T11:16:56.005Z,95.40
2019-06-25T11:17:59.629Z,95.60
2019-06-25T11:19:03.803Z,96.00
2019-06-25T11:20:07.372Z,96.50
2019-06-25T11:21:11.516Z,95.90
2019-06-25T11:22:15.575Z,96.50
2019-06-25T11:23:19.872Z,95.80
2019-06-25T11:24:23.444Z,95.50
2019-06-25T11:25:27.635Z,95.30
2019-06-25T11:26:31.204Z,95.60
2019-06-25T11:27:35.361Z,95.70
2019-06-25T11:28:39.027Z,95.80
2019-06-25T11:29:43.220Z,95.50
2019-06-25T11:30:46.892Z,95.30
2019-06-25T11:31:51.282Z,95.20
2019-06-25T11:32:54.852Z,96.20
2019-06-25T11:33:59.009Z,94.90
2019-06-25T11:35:02.691Z,95.10
2019-06-25T11:36:20.139Z,94.60
2019-06-25T11:37:12.120Z,94.60
2019-06-25T11:38:16.266Z,94.40
2019-06-25T11:39:20.097Z,94.00
2019-06-25T11:40:36.099Z,94.20
2019-06-25T11:41:39.613Z,94.10
2019-06-25T11:42:43.783Z,94.20
2019-06-25T11:43:47.354Z,93.50
2019-06-25T11:44:51.581Z,94.10
2019-06-25T11:45:55.138Z,93.80
2019-06-25T11:46:59.283Z,94.80
2019-06-25T11:48:03.216Z,94.70
2019-06-25T11:49:07.366Z,93.90
2019-06-25T11:50:11.425Z,94.50
2019-06-25T11:51:15.586Z,94.20
2019-06-25T11:52:19.150Z,94.30
2019-06-25T11:53:23.675Z,94.10
2019-06-25T11:54:27.275Z,94.40
2019-06-25T11:55:31.598Z,92.80
2019-06-25T11:56:35.164Z,94.40
2019-06-25T11:57:39.378Z,93.00
2019-06-25T11:58:42.939Z,93.90
2019-06-25T11:59:47.086Z,92.90
2019-06-25T12:00:50.725Z,92.90
2019-06-25T12:01:54.892Z,92.90
2019-06-25T12:02:58.582Z,92.50
2019-06-25T12:04:02.747Z,93.00
2019-06-25T12:05:07.378Z,93.30
2019-06-25T12:06:11.525Z,93.20
2019-06-25T12:07:15.137Z,92.40
2019-06-25T12:08:19.278Z,92.60
2019-06-25T12:09:22.847Z,92.80
2019-06-25T12:10:27.164Z,92.30
2019-06-25T12:11:30.727Z,92.40
2019-06-25T12:12:34.920Z,93.10
2019-06-25T12:13:38.487Z,93.20
2019-06-25T12:14:42.678Z,93.80
2019-06-25T12:15:48.544Z,94.00
2019-06-25T12:16:52.115Z,93.40
2019-06-25T12:17:55.687Z,93.90
2019-06-25T12:18:59.866Z,93.00
2019-06-25T12:20:04.813Z,93.00
2019-06-25T12:21:09.032Z,92.60
2019-06-25T12:22:12.591Z,93.10
2019-06-25T12:23:16.562Z,93.60
2019-06-25T12:24:20.146Z,93.40
2019-06-25T12:25:24.291Z,93.50
2019-06-25T12:26:27.868Z,92.90
2019-06-25T12:27:32.012Z,93.80
2019-06-25T12:28:35.579Z,92.10
2019-06-25T12:29:39.768Z,92.40
2019-06-25T12:30:43.377Z,93.10
2019-06-25T12:31:47.516Z,92.20
2019-06-25T12:32:51.080Z,93.30
2019-06-25T12:33:55.239Z,92.40
2019-06-25T12:34:59.477Z,92.50
2019-06-25T12:36:03.684Z,93.80
2019-06-25T12:37:10.018Z,93.30
2019-06-25T12:38:13.066Z,93.10
2019-06-25T12:39:16.664Z,92.30
2019-06-25T12:40:20.914Z,92.00
2019-06-25T12:41:24.558Z,92.00
2019-06-25T12:42:28.698Z,91.30
2019-06-25T12:43:32.328Z,91.70
2019-06-25T12:44:36.466Z,91.30
2019-06-25T12:45:40.031Z,91.80
2019-06-25T12:46:52.701Z,91.40
2019-06-25T12:47:49.392Z,91.80
2019-06-25T12:48:53.573Z,91.80
2019-06-25T12:49:57.160Z,91.60
2019-06-25T12:51:01.379Z,92.00
2019-06-25T12:52:04.910Z,92.40
2019-06-25T12:53:09.128Z,92.40
2019-06-25T12:54:12.699Z,92.10
2019-06-25T12:55:17.201Z,92.60
2019-06-25T12:56:20.795Z,91.70
2019-06-25T12:57:24.939Z,92.20
2019-06-25T12:58:28.504Z,92.70
2019-06-25T12:59:32.652Z,92.20
2019-06-25T13:00:36.228Z,92.40
2019-06-25T13:01:41.967Z,91.70
2019-06-25T13:02:45.783Z,92.10
2019-06-25T13:03:49.931Z,92.50
2019-06-25T13:04:53.504Z,92.60
2019-06-25T13:05:57.687Z,92.30
2019-06-25T13:07:01.293Z,92.10
2019-06-25T13:08:05.453Z,92.20
2019-06-25T13:09:09.120Z,92.00
2019-06-25T13:10:13.846Z,92.10
2019-06-25T13:11:17.508Z,92.20
2019-06-25T13:12:21.664Z,93.90
2019-06-25T13:13:25.231Z,92.00
2019-06-25T13:14:29.388Z,92.40
2019-06-25T13:15:32.992Z,91.80
2019-06-25T13:16:37.144Z,92.20
2019-06-25T13:17:40.725Z,91.90
2019-06-25T13:18:44.904Z,92.40
2019-06-25T13:19:48.518Z,92.80
2019-06-25T13:20:52.611Z,92.00
2019-06-25T13:21:56.176Z,92.80
2019-06-25T13:23:00.382Z,92.10
2019-06-25T13:24:04.013Z,92.00
2019-06-25T13:25:08.420Z,92.20
2019-06-25T13:26:12.013Z,92.10
2019-06-25T13:27:16.171Z,92.40
2019-06-25T13:28:19.728Z,91.70
2019-06-25T13:29:23.885Z,91.60
2019-06-25T13:30:27.474Z,92.20
2019-06-25T13:31:31.621Z,91.60
2019-06-25T13:32:35.202Z,91.80
2019-06-25T13:33:39.344Z,92.30
2019-06-25T13:34:42.959Z,92.20
2019-06-25T13:35:47.103Z,92.40
2019-06-25T13:36:50.713Z,92.10
2019-06-25T13:37:54.905Z,91.60
2019-06-25T13:38:58.490Z,92.20
2019-06-25T13:40:02.743Z,91.30
2019-06-25T13:41:06.356Z,90.60
2019-06-25T13:42:10.496Z,89.50
2019-06-25T13:43:14.085Z,90.40
2019-06-25T13:44:18.228Z,90.60
2019-06-25T13:45:22.466Z,90.60
2019-06-25T13:46:26.619Z,91.00